Overview Statistics Trail Chart Weather Telemetry Raw packets
 

This is the latest recevied weather packets stored in our database for station/object KI4KWR-1. If no packets are shown the sender has not sent any weather packets the latest 10 day(s).

<< 28 29 30 31 32 33 34 >>
Time Temp. Humidity Pressure Rain* Wind** Luminosity Snow
1787961604 30° C 54% 987.2 hPa 0 mm - - -
1787960703 30° C 54% 987.1 hPa 0 mm - - -
1787959804 30.56° C 53% 987 hPa 0 mm - - -
1787958903 31.11° C 50% 987 hPa 0 mm - - -
1787958004 31.67° C 51% 986.9 hPa 0 mm - - -
1787957104 31.67° C 50% 986.9 hPa 0 mm - - -
1787956204 32.22° C 48% 986.9 hPa 0 mm - - -
1787955304 32.22° C 49% 986.9 hPa 0 mm - - -
1787954404 30° C 55% 987 hPa 0 mm - - -
1787953503 31.11° C 50% 986.8 hPa 0 mm - - -
1787952604 32.78° C 48% 987 hPa 0 mm - - -
1787951704 32.78° C 47% 987.1 hPa 0 mm - - -
1787950804 31.67° C 47% 987.2 hPa 0 mm - - -
1787949904 32.78° C 48% 987.3 hPa 0 mm - - -
1787949003 32.22° C 51% 987.4 hPa 0 mm - - -
1787948104 30° C 55% 987.5 hPa 0 mm - - -
1787947213 32.78° C 49% 987.6 hPa 0 mm - - -
1787946304 32.78° C 49% 987.8 hPa 0 mm - - -
1787945403 31.11° C 54% 988 hPa 0 mm - - -
1787944513 30° C 54% 988.1 hPa 0 mm - - -
1787943603 30.56° C 54% 988.3 hPa 0 mm - - -
1787942704 32.78° C 47% 988.3 hPa 0 mm - - -
1787941803 32.22° C 49% 988.4 hPa 0 mm - - -
1787940914 31.11° C 53% 988.5 hPa 0 mm - - -
1787940004 30.56° C 54% 988.7 hPa 0 mm - - -

* Rain latest hour (hover to see other rain measurements)
** Current wind speed in m/s (hover to see current wind gust speed)